createdAt,value
2022-10-13T00:00:47.786Z,26.40
2022-10-13T00:03:15.782Z,29.87
2022-10-13T00:05:47.668Z,27.33
2022-10-13T00:08:19.062Z,27.42
2022-10-13T00:10:47.438Z,22.15
2022-10-13T00:13:15.061Z,24.63
2022-10-13T00:15:43.714Z,24.83
2022-10-13T00:18:11.063Z,26.87
2022-10-13T00:20:43.154Z,21.52
2022-10-13T00:23:10.632Z,22.90
2022-10-13T00:25:44.612Z,20.98
2022-10-13T00:28:12.349Z,22.95
2022-10-13T00:30:39.933Z,27.42
2022-10-13T00:33:07.335Z,22.48
2022-10-13T00:35:35.105Z,29.02
2022-10-13T00:38:02.449Z,24.30
2022-10-13T00:40:31.359Z,24.20
2022-10-13T00:42:59.174Z,22.85
2022-10-13T00:45:27.494Z,24.92
2022-10-13T00:47:59.020Z,22.95
2022-10-13T00:50:32.829Z,27.00
2022-10-13T00:53:02.916Z,24.67
2022-10-13T00:55:31.541Z,24.20
2022-10-13T00:58:05.157Z,23.92
2022-10-13T01:00:33.966Z,26.33
2022-10-13T01:03:02.099Z,22.83
2022-10-13T01:05:29.787Z,28.02
2022-10-13T01:07:57.594Z,28.20
2022-10-13T01:10:42.341Z,29.02
2022-10-13T01:13:31.286Z,26.85
2022-10-13T01:16:18.480Z,26.58
2022-10-13T01:19:05.393Z,24.23
2022-10-13T01:21:47.676Z,22.15
2022-10-13T01:24:34.453Z,25.65
2022-10-13T01:27:24.649Z,30.83
2022-10-13T01:30:07.129Z,25.85
2022-10-13T01:32:38.445Z,23.67
2022-10-13T01:35:08.548Z,26.85
2022-10-13T01:38:11.883Z,24.35
2022-10-13T01:41:13.743Z,28.02
2022-10-13T01:44:16.068Z,26.87
2022-10-13T01:46:44.431Z,31.12
2022-10-13T01:49:12.774Z,28.10
2022-10-13T01:51:40.245Z,29.58
2022-10-13T01:54:08.217Z,26.02
2022-10-13T01:56:35.543Z,28.40
2022-10-13T01:59:07.345Z,25.25
2022-10-13T02:01:49.706Z,25.65
2022-10-13T02:06:58.202Z,29.73
2022-10-13T02:09:47.549Z,27.30
2022-10-13T02:12:27.788Z,26.83
2022-10-13T02:14:55.805Z,34.55
2022-10-13T02:17:23.203Z,33.33
2022-10-13T02:19:50.511Z,25.27
2022-10-13T02:22:18.325Z,23.55
2022-10-13T02:24:45.970Z,25.33
2022-10-13T02:27:13.300Z,25.10
2022-10-13T02:29:51.574Z,26.27
2022-10-13T02:32:20.094Z,25.50
2022-10-13T02:34:48.110Z,27.58
2022-10-13T02:37:15.465Z,25.17
2022-10-13T02:39:42.897Z,31.98
2022-10-13T02:42:12.049Z,23.92
2022-10-13T02:44:40.180Z,25.25
2022-10-13T02:47:07.524Z,25.70
2022-10-13T02:49:35.100Z,24.67
2022-10-13T02:52:02.477Z,23.17
2022-10-13T02:54:29.802Z,27.95
2022-10-13T02:56:57.358Z,25.58
2022-10-13T02:59:24.688Z,26.05
2022-10-13T03:01:52.009Z,23.35
2022-10-13T03:04:19.605Z,28.95
2022-10-13T03:06:46.955Z,20.48
2022-10-13T03:09:14.281Z,28.38
2022-10-13T03:11:44.126Z,23.77
2022-10-13T03:14:11.512Z,27.75
2022-10-13T03:16:38.841Z,26.87
2022-10-13T03:19:10.856Z,31.23
2022-10-13T03:21:39.625Z,22.52
2022-10-13T03:24:07.251Z,25.00
2022-10-13T03:26:35.184Z,27.98
2022-10-13T03:29:02.502Z,21.87
2022-10-13T03:31:30.237Z,23.33
2022-10-13T03:34:02.315Z,21.62
2022-10-13T03:36:30.057Z,27.58
2022-10-13T03:38:57.383Z,21.67
2022-10-13T03:41:24.701Z,25.62
2022-10-13T03:43:52.300Z,22.90
2022-10-13T03:46:19.629Z,26.87
2022-10-13T03:48:47.438Z,22.65
2022-10-13T03:51:18.896Z,23.45
2022-10-13T03:53:47.210Z,25.10
2022-10-13T03:56:17.538Z,24.42
2022-10-13T03:58:53.776Z,23.70
2022-10-13T04:01:22.513Z,24.85
2022-10-13T04:03:50.635Z,26.45
2022-10-13T04:06:17.937Z,25.75
2022-10-13T04:08:45.264Z,22.55
2022-10-13T04:11:14.153Z,22.92
2022-10-13T04:13:41.842Z,22.50
2022-10-13T04:16:14.093Z,23.23
2022-10-13T04:18:44.656Z,25.52
2022-10-13T04:21:14.001Z,24.58
2022-10-13T04:23:41.734Z,25.25
2022-10-13T04:26:15.046Z,24.05
2022-10-13T04:28:42.779Z,19.98
2022-10-13T04:31:10.193Z,25.73
2022-10-13T04:33:37.538Z,20.88
2022-10-13T04:36:06.228Z,24.45
2022-10-13T04:38:33.705Z,22.05
2022-10-13T04:41:04.588Z,21.35
2022-10-13T04:43:32.564Z,26.10
2022-10-13T04:46:06.404Z,23.27
2022-10-13T04:48:34.241Z,23.55
2022-10-13T04:51:09.367Z,23.30
2022-10-13T04:53:37.069Z,22.30
2022-10-13T04:56:08.538Z,24.37
2022-10-13T04:58:36.959Z,23.25
2022-10-13T05:01:05.355Z,22.48
2022-10-13T05:03:33.344Z,23.05
2022-10-13T05:06:00.763Z,27.52
2022-10-13T05:08:28.372Z,27.95
2022-10-13T05:11:01.919Z,22.62
2022-10-13T05:13:29.695Z,21.33
2022-10-13T05:15:57.918Z,22.67
2022-10-13T05:18:25.427Z,23.52
2022-10-13T05:20:53.039Z,23.23
2022-10-13T05:23:20.361Z,26.70
2022-10-13T05:25:47.804Z,29.40
2022-10-13T05:28:18.405Z,28.38
2022-10-13T05:30:45.916Z,25.73
2022-10-13T05:33:13.295Z,28.20
2022-10-13T05:35:41.006Z,24.12
2022-10-13T05:38:08.362Z,24.80
2022-10-13T05:40:35.837Z,23.67
2022-10-13T05:43:03.917Z,33.85
2022-10-13T05:45:35.560Z,29.80
2022-10-13T05:48:03.473Z,32.53
2022-10-13T05:50:31.028Z,24.27
2022-10-13T05:52:58.367Z,28.77
2022-10-13T05:55:26.030Z,26.20
2022-10-13T05:57:53.323Z,31.65
2022-10-13T06:00:21.267Z,24.67
2022-10-13T06:02:52.724Z,52.45
2022-10-13T06:05:20.557Z,44.42
2022-10-13T06:07:50.327Z,30.45
2022-10-13T06:10:18.788Z,34.10
2022-10-13T06:12:46.116Z,27.00
2022-10-13T06:15:13.434Z,29.30
2022-10-13T06:17:41.234Z,25.80
2022-10-13T06:20:09.079Z,30.52
2022-10-13T06:22:36.686Z,31.45
2022-10-13T06:25:05.572Z,24.12
2022-10-13T06:27:32.914Z,31.98
2022-10-13T06:30:00.456Z,29.85
2022-10-13T06:32:28.090Z,26.92
2022-10-13T06:34:55.430Z,28.50
2022-10-13T06:37:27.071Z,28.05
2022-10-13T06:39:55.020Z,24.60
2022-10-13T06:42:22.923Z,25.55
2022-10-13T06:44:51.744Z,26.62
2022-10-13T06:47:19.324Z,32.33
2022-10-13T06:49:46.880Z,24.87
2022-10-13T06:52:14.747Z,30.25
2022-10-13T06:54:43.602Z,33.20
2022-10-13T06:57:12.402Z,29.48
2022-10-13T06:59:39.730Z,29.50
2022-10-13T07:02:07.348Z,29.02
2022-10-13T07:04:34.689Z,29.12
2022-10-13T07:07:02.038Z,29.80
2022-10-13T07:09:29.906Z,27.83
2022-10-13T07:11:57.269Z,29.37
2022-10-13T07:14:24.930Z,27.17
2022-10-13T07:16:52.799Z,30.83
2022-10-13T07:19:20.178Z,51.40
2022-10-13T07:21:47.580Z,36.25
2022-10-13T07:24:15.205Z,34.08
2022-10-13T07:26:42.560Z,33.38
2022-10-13T07:29:10.004Z,32.38
2022-10-13T07:31:37.597Z,27.45
2022-10-13T07:34:05.568Z,31.95
2022-10-13T07:36:33.210Z,37.03
2022-10-13T07:39:01.268Z,32.95
2022-10-13T07:41:28.570Z,31.10
2022-10-13T07:43:56.594Z,25.98
2022-10-13T07:46:24.385Z,25.75
2022-10-13T07:48:54.525Z,33.10
2022-10-13T07:51:22.438Z,27.77
2022-10-13T07:53:50.374Z,32.83
2022-10-13T07:56:17.739Z,25.65
2022-10-13T07:58:46.174Z,24.25
2022-10-13T08:01:14.382Z,21.77
2022-10-13T08:03:45.623Z,25.58
2022-10-13T08:06:16.934Z,33.38
2022-10-13T08:08:44.557Z,42.45
2022-10-13T08:11:16.461Z,39.30
2022-10-13T08:13:51.141Z,29.98
2022-10-13T08:16:20.985Z,21.67
2022-10-13T08:18:48.685Z,20.17
2022-10-13T08:21:52.840Z,26.05
2022-10-13T08:24:06.517Z,23.02
2022-10-13T08:26:33.845Z,19.02
2022-10-13T08:34:17.071Z,14.20
2022-10-13T08:36:44.575Z,20.55
2022-10-13T08:39:12.945Z,16.45
2022-10-13T08:41:41.564Z,16.67
2022-10-13T08:45:10.518Z,13.85
2022-10-13T08:47:24.609Z,12.95
2022-10-13T08:49:55.375Z,17.83
2022-10-13T08:52:27.731Z,14.95
2022-10-13T08:54:55.599Z,12.30
2022-10-13T08:57:24.634Z,13.30
2022-10-13T08:59:52.611Z,17.05
2022-10-13T09:02:26.503Z,14.73
2022-10-13T09:04:54.211Z,15.20
2022-10-13T09:07:27.210Z,10.23
2022-10-13T09:09:55.473Z,13.60
2022-10-13T09:12:25.149Z,22.75
2022-10-13T09:15:03.358Z,14.82
2022-10-13T09:17:31.209Z,10.98
2022-10-13T09:20:02.386Z,16.35
2022-10-13T09:22:39.565Z,19.58
2022-10-13T09:25:07.068Z,12.43
2022-10-13T09:27:49.282Z,18.62
2022-10-13T09:30:28.473Z,13.30
2022-10-13T09:33:13.678Z,16.62
2022-10-13T09:36:11.027Z,18.70
2022-10-13T09:38:39.270Z,14.60
2022-10-13T09:41:13.668Z,14.70
2022-10-13T09:43:47.826Z,15.73
2022-10-13T09:46:21.805Z,23.58
2022-10-13T09:48:52.818Z,19.02
2022-10-13T09:51:34.992Z,18.83
2022-10-13T09:54:35.661Z,16.70
2022-10-13T09:57:40.164Z,15.05
2022-10-13T10:00:17.083Z,15.20
2022-10-13T10:03:03.002Z,16.70
2022-10-13T10:05:52.270Z,19.70
2022-10-13T10:09:01.580Z,18.20
2022-10-13T10:11:33.573Z,18.30
2022-10-13T10:14:10.344Z,16.77
2022-10-13T10:16:41.823Z,16.45
2022-10-13T10:19:47.795Z,18.95
2022-10-13T10:22:48.824Z,18.00
2022-10-13T10:25:38.727Z,22.70
2022-10-13T10:28:32.704Z,18.67
2022-10-13T10:31:09.374Z,14.55
2022-10-13T10:36:27.100Z,19.40
2022-10-13T10:38:56.356Z,18.30
2022-10-13T10:41:48.663Z,19.20
2022-10-13T10:44:17.475Z,20.10
2022-10-13T10:46:49.048Z,18.27
2022-10-13T10:49:34.994Z,20.88
2022-10-13T10:52:06.037Z,16.83
2022-10-13T10:55:20.634Z,20.10
2022-10-13T10:58:05.260Z,25.83
2022-10-13T11:00:37.563Z,21.35
2022-10-13T11:03:26.139Z,19.23
2022-10-13T11:06:26.421Z,19.08
2022-10-13T11:08:55.388Z,18.60
2022-10-13T11:11:25.113Z,16.08
2022-10-13T11:13:59.411Z,15.35
2022-10-13T11:16:31.842Z,17.27
2022-10-13T11:19:05.834Z,19.67
2022-10-13T11:21:55.226Z,20.75
2022-10-13T11:24:49.877Z,19.08
2022-10-13T11:27:19.864Z,22.37
2022-10-13T11:29:48.853Z,18.42
2022-10-13T11:32:30.419Z,20.73
2022-10-13T11:34:57.828Z,18.00
2022-10-13T11:37:29.410Z,20.83
2022-10-13T11:40:32.590Z,20.27
2022-10-13T11:43:31.369Z,22.02
2022-10-13T11:46:22.110Z,21.10
2022-10-13T11:49:06.064Z,15.38
2022-10-13T11:51:57.116Z,21.40
2022-10-13T11:54:40.965Z,22.58
2022-10-13T11:57:21.175Z,21.48
2022-10-13T11:59:49.936Z,22.90
2022-10-13T12:02:23.683Z,22.17
2022-10-13T12:05:08.823Z,19.95
2022-10-13T12:07:39.482Z,17.25
2022-10-13T12:10:08.257Z,15.60
2022-10-13T12:12:35.714Z,18.67
2022-10-13T12:15:26.301Z,21.95
2022-10-13T12:17:53.909Z,14.90
2022-10-13T12:20:23.504Z,15.82
2022-10-13T12:22:51.316Z,20.02
2022-10-13T12:25:20.339Z,18.15
2022-10-13T12:27:51.366Z,18.92
2022-10-13T12:30:26.033Z,25.80
2022-10-13T12:32:55.477Z,16.23
2022-10-13T12:35:25.421Z,16.87
2022-10-13T12:37:53.197Z,17.52
2022-10-13T12:40:20.815Z,13.23
2022-10-13T12:42:48.823Z,16.10
2022-10-13T12:45:20.236Z,17.45
2022-10-13T12:47:50.137Z,17.17
2022-10-13T12:50:27.471Z,18.55
2022-10-13T12:53:13.827Z,16.80
2022-10-13T12:58:39.153Z,18.25
2022-10-13T13:01:12.507Z,16.73
2022-10-13T13:03:40.864Z,15.48
2022-10-13T13:06:10.294Z,18.12
2022-10-13T13:08:39.778Z,19.73
2022-10-13T13:11:19.890Z,18.45
2022-10-13T13:13:48.053Z,14.98
2022-10-13T13:16:20.268Z,19.20
2022-10-13T13:18:48.491Z,14.68
2022-10-13T13:21:19.132Z,18.08
2022-10-13T13:23:51.223Z,20.15
2022-10-13T13:26:22.749Z,17.48
2022-10-13T13:28:54.643Z,20.35
2022-10-13T13:31:23.533Z,16.55
2022-10-13T13:33:51.013Z,14.77
2022-10-13T13:36:23.347Z,19.30
2022-10-13T13:38:53.012Z,16.25
2022-10-13T13:41:20.382Z,23.08
2022-10-13T13:43:48.063Z,17.35
2022-10-13T13:46:25.665Z,17.55
2022-10-13T13:48:53.126Z,16.42
2022-10-13T13:51:21.050Z,19.85
2022-10-13T13:53:48.476Z,17.33
2022-10-13T13:56:19.244Z,16.27
2022-10-13T13:58:46.880Z,19.92
2022-10-13T14:01:14.396Z,24.10
2022-10-13T14:03:42.081Z,24.40
2022-10-13T14:06:19.335Z,16.75
2022-10-13T14:08:46.945Z,15.90
2022-10-13T14:11:14.318Z,12.60
2022-10-13T14:13:41.756Z,16.83
2022-10-13T14:16:09.516Z,13.55
2022-10-13T14:18:36.812Z,15.55
2022-10-13T14:21:07.641Z,29.83
2022-10-13T14:23:35.563Z,28.10
2022-10-13T14:26:07.946Z,25.52
2022-10-13T14:28:35.563Z,20.33
2022-10-13T14:31:06.644Z,14.77
2022-10-13T14:33:35.609Z,14.25
2022-10-13T14:36:04.761Z,15.63
2022-10-13T14:38:32.696Z,16.08
2022-10-13T14:41:04.906Z,17.75
2022-10-13T14:43:32.919Z,16.00
2022-10-13T14:46:04.222Z,24.45
2022-10-13T14:48:32.668Z,20.48
2022-10-13T14:51:00.181Z,18.50
2022-10-13T14:53:28.372Z,15.05
2022-10-13T14:55:55.974Z,22.37
2022-10-13T14:58:23.351Z,17.23
2022-10-13T15:00:51.938Z,23.10
2022-10-13T15:03:19.602Z,19.40
2022-10-13T15:05:46.976Z,25.00
2022-10-13T15:08:18.091Z,20.50
2022-10-13T15:10:45.762Z,19.75
2022-10-13T15:13:13.080Z,34.25
2022-10-13T15:15:46.676Z,23.05
2022-10-13T15:18:14.262Z,28.42
2022-10-13T15:20:46.381Z,27.13
2022-10-13T15:23:14.551Z,26.77
2022-10-13T15:25:56.409Z,23.40
2022-10-13T15:28:24.658Z,22.67
2022-10-13T15:30:52.062Z,26.65
2022-10-13T15:33:21.918Z,27.98
2022-10-13T15:35:50.269Z,28.45
2022-10-13T15:38:17.990Z,30.00
2022-10-13T15:40:45.688Z,28.42
2022-10-13T15:43:13.300Z,27.83
2022-10-13T15:45:40.642Z,30.45
2022-10-13T15:48:08.676Z,26.80
2022-10-13T15:50:38.984Z,25.60
2022-10-13T15:53:06.801Z,26.98
2022-10-13T15:55:34.487Z,24.50
2022-10-13T15:58:02.462Z,33.60
2022-10-13T16:00:29.805Z,23.73
2022-10-13T16:02:57.422Z,25.62
2022-10-13T16:05:24.740Z,25.77
2022-10-13T16:07:52.044Z,24.08
2022-10-13T16:10:19.636Z,30.50
2022-10-13T16:12:49.645Z,30.23
2022-10-13T16:15:18.010Z,24.85
2022-10-13T16:17:46.480Z,24.33
2022-10-13T16:20:14.014Z,25.10
2022-10-13T16:22:41.336Z,30.77
2022-10-13T16:25:09.607Z,30.62
2022-10-13T16:27:40.432Z,25.12
2022-10-13T16:30:11.233Z,26.48
2022-10-13T16:32:39.473Z,22.30
2022-10-13T16:35:07.401Z,23.90
2022-10-13T16:37:35.012Z,19.48
2022-10-13T16:40:02.344Z,23.85
2022-10-13T16:42:29.732Z,22.62
2022-10-13T16:44:57.629Z,19.05
2022-10-13T16:47:27.569Z,25.37
2022-10-13T16:49:54.925Z,26.73
2022-10-13T16:52:24.372Z,23.23
2022-10-13T16:54:52.534Z,24.45
2022-10-13T16:57:20.163Z,76.10
2022-10-13T16:59:48.542Z,37.80
2022-10-13T17:02:15.908Z,52.05
2022-10-13T17:04:43.241Z,41.75
2022-10-13T17:07:10.815Z,34.53
2022-10-13T17:09:38.353Z,32.72
2022-10-13T17:12:05.873Z,40.55
2022-10-13T17:14:33.497Z,44.63
2022-10-13T17:17:00.822Z,42.15
2022-10-13T17:19:28.157Z,40.47
2022-10-13T17:21:55.789Z,30.92
2022-10-13T17:24:23.504Z,38.38
2022-10-13T17:26:51.120Z,36.35
2022-10-13T17:29:18.716Z,32.92
2022-10-13T17:31:46.096Z,37.42
2022-10-13T17:34:13.409Z,35.72
2022-10-13T17:36:41.003Z,40.50
2022-10-13T17:39:09.319Z,35.30
2022-10-13T17:41:38.720Z,35.80
2022-10-13T17:44:06.310Z,31.83
2022-10-13T17:46:38.723Z,30.80
2022-10-13T17:49:07.951Z,28.20
2022-10-13T17:51:35.303Z,26.37
2022-10-13T17:54:02.636Z,26.55
2022-10-13T17:56:30.285Z,32.05
2022-10-13T17:58:57.843Z,32.55
2022-10-13T18:01:27.086Z,27.83
2022-10-13T18:03:58.835Z,32.72
2022-10-13T18:06:36.709Z,34.35
2022-10-13T18:09:06.796Z,33.78
2022-10-13T18:11:35.234Z,28.50
2022-10-13T18:14:02.571Z,22.37
2022-10-13T18:16:30.190Z,35.88
2022-10-13T18:18:57.495Z,27.30
2022-10-13T18:21:27.735Z,21.77
2022-10-13T18:23:56.099Z,19.67
2022-10-13T18:26:23.704Z,21.98
2022-10-13T18:28:51.351Z,21.95
2022-10-13T18:31:27.707Z,22.13
2022-10-13T18:33:59.239Z,22.65
2022-10-13T18:36:38.443Z,21.48
2022-10-13T18:39:12.333Z,21.65
2022-10-13T18:41:40.894Z,21.20
2022-10-13T18:44:08.348Z,22.80
2022-10-13T18:46:36.498Z,27.62
2022-10-13T18:49:08.254Z,24.60
2022-10-13T18:51:37.736Z,23.70
2022-10-13T18:54:05.515Z,28.75
2022-10-13T18:56:33.322Z,36.17
2022-10-13T18:59:01.436Z,28.55
2022-10-13T19:01:30.841Z,28.42
2022-10-13T19:03:58.242Z,28.48
2022-10-13T19:06:27.054Z,27.02
2022-10-13T19:09:00.563Z,21.40
2022-10-13T19:11:28.306Z,23.38
2022-10-13T19:13:56.055Z,24.95
2022-10-13T19:16:24.189Z,24.80
2022-10-13T19:18:51.872Z,25.58
2022-10-13T19:21:19.764Z,29.95
2022-10-13T19:23:47.193Z,28.50
2022-10-13T19:26:17.899Z,30.85
